Reklama
Líbí se Vám tento web? Budeme velmi rádi, pokud přidáte hodnocení +1

Seznam meteostanic a jejich METAR

Vyhledat místa podle abecedy:
A B C D E F G H I J K L M N O P Q R S T U V W X Y Z

Filtrovat:

ID stanice:
a/nebo
Název místa (fulltext):
 
Místo (ID)Naposledy načteno 
Wake Island (PWAK) 21.06.2018 01:58 UTC Zobrazit METAR
PWAK 210158Z AUTO 08014KT 9999 FEW230 SCT340 31/24 A2993 RMK AO2 SLPNO
Warsaw (EPWA) 21.06.2018 02:00 UTC Zobrazit METAR
EPWA 210200Z 19002KT CAVOK 17/14 Q1016 NOSIG
Washington (KIAD) 21.06.2018 01:52 UTC Zobrazit METAR
KIAD 210152Z 00000KT 10SM FEW100 21/21 A2980 RMK AO2 RAE46 SLP087 P0007 T02110211
Wellington (NZWN) 21.06.2018 02:00 UTC Zobrazit METAR
NZWN 210200Z AUTO 16015KT 9999 -RA BKN027/// 09/06 Q1022 NOSIG
Windhoek (FYWH) 20.06.2018 10:00 UTC Zobrazit METAR
FYWH 201000Z 06008KT CAVOK 21/M07 Q1027 NOSIG
Wroclaw (EPWR) 21.06.2018 02:00 UTC Zobrazit METAR
EPWR 210200Z 13002KT 9999 MIFG NSC 16/13 Q1015
Reklama

Počasí na Váš email

Emaily jsou bez reklamy a bez spamu



Odhlásit newsletter

Reklama


Lunární kalendář

  • 28.06.
  • 06.07.
  • 13.07.
  • 19.07.



Slunečno.cz na Google+

Reklama


Reklama
Povinné ručení
Reklama




Reklama